Widewater, Canada
Current Conditions -  °F | °C
As of 8:00 AM on Friday 24 Oct 2014 (Local Time) from CYZH Reporting Station
Overcast Overcast  
Wind Chill: 31°   Ceiling: 6500
Heat Index: 39°   Visibility: 9mi
Dew Point: 36°   Wind: 15mph
Humidity: 87%   Direction: 290°WNW
Pressure: 29.71"   Gusts: NA
Location:  55.35°N, 114.98°W
Report Text: CYZH 241400Z AUTO 29013KT 9SM SCT017 OVC065 04/02 A2971 RMK SLP080
Loading
Personal Weather Stations






























Interactive Weather Map
Tropical Storm Tracking
New forecast layout! Learn more

10-Day Weather Forecast

Advertisements
Track Severe Weather on mobile